CheckWX is a tool to help pilots better visualize weather data.  It is not intended as a substitute for an official pre-flight weather briefing.

01:05:34 UTC

KARA METAR
Acadiana Regional Airport
New Iberia, Louisiana, USA
Current

13 mins ago

KARA 240053Z 20007KT 10SM BKN008 OVC014 22/21 A2992 RMK AO2 RAE38 CIG 006V013 SLP131 P0000 T02170211
Observed
Feb-24 @ 00:53 UTC
Wind
  • 200° at 7 KTS
Visibility
10 SM
Flight Rules
IFR
Cloud Levels
  • Broken at 800' AGL
  • Overcast at 1,400' AGL
Temperature
22°C / 72°F
Dewpoint
21°C / 70°F
Humidity
94%
Altimeter
29.92" Hg
Pressure
1013.1 hPa
Current Rain
0.01"
Previous

1 hour ago

KARA 232353Z 21010KT 7SM -RA OVC005 22/22 A2990 RMK AO2 SLP125 P0001 60001 T02220217 10256 20217 53010
Observed
Feb-23 @ 23:53 UTC
Wind
  • 210° at 10 KTS
Visibility
7 SM
Flight Rules
IFR
Conditions
Light Rain
Cloud Levels
  • Overcast at 500' AGL
Temperature
22°C / 72°F
Dewpoint
22°C / 72°F
Humidity
100%
Altimeter
29.9" Hg
Pressure
1012.5 hPa
Current Rain
0.01"
Previous

2 hours ago

KARA 232253Z 21013KT 10SM -RA OVC006 22/22 A2988 RMK AO2 SLP117 P0000 T02220217
Observed
Feb-23 @ 22:53 UTC
Wind
  • 210° at 13 KTS
Visibility
10 SM
Flight Rules
IFR
Conditions
Light Rain
Cloud Levels
  • Overcast at 600' AGL
Temperature
22°C / 72°F
Dewpoint
22°C / 72°F
Humidity
100%
Altimeter
29.88" Hg
Pressure
1011.7 hPa
Current Rain
0.01"